Time;durP1;ratioP1;P1;durP2;ratioP2;P2;SDS_P1;SDS_P2;PMS_P1;PMS_P2;Temp;Humidity;BMP_temperature;BMP_pressure;BME280_temperature;BME280_humidity;BME280_pressure;Samples;Min_cycle;Max_cycle;Signal;HPM_P1;HPM_P2
2024/02/24 00:01:56;;;;;;;;;;;9.10;71.50;;;;;;4929050;28;19963;-67
2024/02/24 00:04:24;;;;;;;;;;;9.10;71.50;;;;;;4931717;28;19985;-67
2024/02/24 00:06:53;;;;;;;;;;;9.10;71.50;;;;;;4907393;28;19937;-71
2024/02/24 00:09:22;;;;;;;;;;;9.10;71.50;;;;;;4905865;28;19927;-67
2024/02/24 00:11:50;;;;;;;;;;;9.20;71.40;;;;;;4929066;28;19941;-66
2024/02/24 00:14:20;;;;;;;;;;;9.20;71.40;;;;;;4928773;28;20432;-67
2024/02/24 00:16:48;;;;;;;;;;;9.10;71.40;;;;;;4926958;28;20166;-66
2024/02/24 00:19:16;;;;;;;;;;;9.20;71.40;;;;;;4918751;28;19934;-66
2024/02/24 00:21:44;;;;;;;;;;;9.20;71.40;;;;;;4881552;28;19934;-62
2024/02/24 00:24:14;;;;;;;;;;;9.20;71.30;;;;;;4922643;28;19934;-64
2024/02/24 00:26:42;;;;;;;;;;;9.10;71.10;;;;;;4920153;28;19938;-63
2024/02/24 00:29:11;;;;;;;;;;;9.10;71.00;;;;;;4914892;28;19930;-64
2024/02/24 00:31:41;;;;;;;;;;;9.10;71.10;;;;;;4921917;28;20643;-64
2024/02/24 00:34:09;;;;;;;;;;;9.10;71.30;;;;;;4924972;28;19930;-65
2024/02/24 00:36:38;;;;;;;;;;;9.00;71.30;;;;;;4928522;28;20013;-64
2024/02/24 00:39:06;;;;;;;;;;;9.00;71.20;;;;;;4923535;28;19937;-65
2024/02/24 00:41:34;;;;;;;;;;;9.00;71.30;;;;;;4925154;28;19946;-63
2024/02/24 00:44:02;;;;;;;;;;;9.00;71.20;;;;;;4927748;28;19930;-61
2024/02/24 00:46:30;;;;;;;;;;;9.00;71.30;;;;;;4926930;28;19941;-62
2024/02/24 00:49:00;;;;;;;;;;;9.00;72.00;;;;;;4922304;28;20197;-61
2024/02/24 00:51:28;;;;;;;;;;;8.90;71.20;;;;;;4851419;28;19938;-62
2024/02/24 00:53:56;;;;;;;;;;;8.80;71.10;;;;;;4926426;28;19939;-67
2024/02/24 00:56:24;;;;;;;;;;;8.80;71.20;;;;;;4926876;28;19930;-68
2024/02/24 00:58:53;;;;;;;;;;;8.70;71.50;;;;;;4923426;28;20397;-68
2024/02/24 01:01:22;;;;;;;;;;;8.60;71.20;;;;;;4923531;28;20366;-67
2024/02/24 01:03:50;;;;;;;;;;;8.60;71.40;;;;;;4927184;28;19933;-67
2024/02/24 01:06:20;;;;;;;;;;;8.50;71.40;;;;;;4925931;28;19934;-64
2024/02/24 01:08:48;;;;;;;;;;;8.40;71.50;;;;;;4916424;28;19942;-64
2024/02/24 01:11:16;;;;;;;;;;;8.40;71.70;;;;;;4920461;28;19934;-66
2024/02/24 01:13:45;;;;;;;;;;;8.40;71.90;;;;;;4930956;28;20456;-67
2024/02/24 01:16:13;;;;;;;;;;;8.30;71.80;;;;;;4929904;28;20044;-63
2024/02/24 01:18:41;;;;;;;;;;;8.30;72.10;;;;;;4930497;28;20523;-66
2024/02/24 01:21:09;;;;;;;;;;;8.30;72.00;;;;;;4916722;28;19930;-67
2024/02/24 01:23:40;;;;;;;;;;;8.30;72.00;;;;;;4931726;28;19937;-67
2024/02/24 01:26:08;;;;;;;;;;;8.30;72.10;;;;;;4932548;28;19927;-66
2024/02/24 01:28:37;;;;;;;;;;;8.30;72.20;;;;;;4935355;28;19938;-64
2024/02/24 01:31:05;;;;;;;;;;;8.30;72.40;;;;;;4926926;28;19941;-65
2024/02/24 01:33:33;;;;;;;;;;;8.30;72.50;;;;;;4937308;28;19927;-65
2024/02/24 01:36:02;;;;;;;;;;;8.30;72.40;;;;;;4930141;28;19937;-64
2024/02/24 01:38:30;;;;;;;;;;;8.30;72.60;;;;;;4934553;28;19938;-63
2024/02/24 01:40:59;;;;;;;;;;;8.40;72.40;;;;;;4925877;28;19933;-67
2024/02/24 01:43:29;;;;;;;;;;;8.40;72.40;;;;;;4935504;28;20354;-65
2024/02/24 01:45:57;;;;;;;;;;;8.40;72.40;;;;;;4934217;28;19937;-66
2024/02/24 01:48:25;;;;;;;;;;;8.40;72.30;;;;;;4934750;28;19953;-66
2024/02/24 01:50:54;;;;;;;;;;;8.40;72.50;;;;;;4933340;28;20416;-65
2024/02/24 01:53:24;;;;;;;;;;;8.40;72.20;;;;;;4937791;28;19926;-67
2024/02/24 01:55:52;;;;;;;;;;;8.10;71.90;;;;;;4936065;28;20678;-64
2024/02/24 01:58:22;;;;;;;;;;;8.40;72.10;;;;;;4926261;28;19935;-64
2024/02/24 02:00:50;;;;;;;;;;;8.40;72.00;;;;;;4930283;28;20041;-63
2024/02/24 02:03:19;;;;;;;;;;;8.40;72.20;;;;;;4924992;28;19953;-66
2024/02/24 02:05:47;;;;;;;;;;;8.40;72.30;;;;;;4933057;28;19958;-67
2024/02/24 02:08:16;;;;;;;;;;;8.40;72.30;;;;;;4932351;28;19956;-65
2024/02/24 02:10:45;;;;;;;;;;;8.40;72.30;;;;;;4929635;28;20021;-64
2024/02/24 02:13:13;;;;;;;;;;;8.40;72.30;;;;;;4927507;28;19929;-67
2024/02/24 02:15:43;;;;;;;;;;;8.30;72.20;;;;;;4932698;28;20398;-64
2024/02/24 02:18:11;;;;;;;;;;;8.30;72.30;;;;;;4939061;28;19935;-63
2024/02/24 02:20:40;;;;;;;;;;;8.30;72.30;;;;;;4931268;28;20644;-67
2024/02/24 02:23:09;;;;;;;;;;;8.30;72.60;;;;;;4931526;28;19937;-63
2024/02/24 02:25:37;;;;;;;;;;;8.30;72.30;;;;;;4938985;28;20090;-66
2024/02/24 02:28:05;;;;;;;;;;;8.30;72.40;;;;;;4939978;28;20642;-66
2024/02/24 02:30:33;;;;;;;;;;;8.30;72.40;;;;;;4939535;28;19927;-65
2024/02/24 02:33:02;;;;;;;;;;;8.30;72.40;;;;;;4933774;28;19930;-63
2024/02/24 02:35:31;;;;;;;;;;;8.30;72.40;;;;;;4927351;28;19931;-66
2024/02/24 02:37:59;;;;;;;;;;;8.30;72.40;;;;;;4934349;28;20334;-67
2024/02/24 02:40:28;;;;;;;;;;;8.30;72.50;;;;;;4938457;28;19931;-64
2024/02/24 02:42:56;;;;;;;;;;;8.30;72.50;;;;;;4936242;28;19930;-67
2024/02/24 02:45:24;;;;;;;;;;;8.30;72.60;;;;;;4944225;28;20365;-65
2024/02/24 02:47:52;;;;;;;;;;;8.30;72.50;;;;;;4957083;28;19961;-67
2024/02/24 02:50:21;;;;;;;;;;;8.30;72.40;;;;;;4932115;28;19935;-66
2024/02/24 02:52:50;;;;;;;;;;;8.30;72.30;;;;;;4939406;28;20320;-63
2024/02/24 02:55:20;;;;;;;;;;;8.30;72.40;;;;;;4930982;28;20425;-65
2024/02/24 02:57:50;;;;;;;;;;;8.30;72.20;;;;;;4939128;28;19930;-63
2024/02/24 03:00:18;;;;;;;;;;;8.30;71.80;;;;;;4940524;28;19934;-65
2024/02/24 03:02:46;;;;;;;;;;;8.30;71.70;;;;;;4946458;28;19930;-68
2024/02/24 03:05:14;;;;;;;;;;;8.20;71.30;;;;;;4921499;28;20293;-67
2024/02/24 03:07:42;;;;;;;;;;;8.10;71.20;;;;;;4936898;28;19941;-62
2024/02/24 03:10:11;;;;;;;;;;;8.00;71.40;;;;;;4934382;28;20408;-67
2024/02/24 03:12:39;;;;;;;;;;;7.90;71.50;;;;;;4939429;28;19941;-64
2024/02/24 03:15:09;;;;;;;;;;;7.90;71.70;;;;;;4917520;28;19930;-67
2024/02/24 03:17:37;;;;;;;;;;;7.90;72.10;;;;;;4937743;28;19937;-69
2024/02/24 03:20:05;;;;;;;;;;;7.90;72.10;;;;;;4938530;28;19926;-64
2024/02/24 03:22:33;;;;;;;;;;;7.80;71.90;;;;;;4937306;28;19938;-67
2024/02/24 03:25:02;;;;;;;;;;;7.80;71.90;;;;;;4949865;28;19966;-65
2024/02/24 03:27:30;;;;;;;;;;;7.80;71.90;;;;;;4932876;28;19930;-66
2024/02/24 03:29:58;;;;;;;;;;;7.80;71.90;;;;;;4952768;28;19930;-66
2024/02/24 03:32:27;;;;;;;;;;;7.70;71.80;;;;;;4939099;28;20309;-64
2024/02/24 03:34:55;;;;;;;;;;;7.70;71.80;;;;;;4934920;28;20416;-65
2024/02/24 03:37:23;;;;;;;;;;;7.70;71.90;;;;;;4926948;28;19930;-63
2024/02/24 03:39:52;;;;;;;;;;;7.70;71.90;;;;;;4936796;28;19934;-65
2024/02/24 03:42:20;;;;;;;;;;;7.70;71.90;;;;;;4933463;28;19927;-63
2024/02/24 03:44:48;;;;;;;;;;;7.70;71.90;;;;;;4932571;28;20401;-66
2024/02/24 03:47:16;;;;;;;;;;;7.70;71.90;;;;;;4930443;28;20330;-65
2024/02/24 03:49:46;;;;;;;;;;;7.60;71.80;;;;;;4932873;28;19927;-64
2024/02/24 03:52:14;;;;;;;;;;;7.60;71.80;;;;;;4933403;28;20615;-66
2024/02/24 03:54:42;;;;;;;;;;;7.60;71.80;;;;;;4938473;28;20443;-62
2024/02/24 03:57:10;;;;;;;;;;;7.60;71.80;;;;;;4934579;28;19981;-67
2024/02/24 03:59:38;;;;;;;;;;;7.60;71.90;;;;;;4932568;28;19934;-66
2024/02/24 04:02:06;;;;;;;;;;;7.50;71.80;;;;;;4938169;28;21241;-64
2024/02/24 04:04:34;;;;;;;;;;;7.50;71.80;;;;;;4934463;28;19926;-67
2024/02/24 04:07:04;;;;;;;;;;;7.50;71.90;;;;;;4938089;28;19941;-64
2024/02/24 04:09:32;;;;;;;;;;;7.50;71.80;;;;;;4940084;28;19935;-66
2024/02/24 04:12:00;;;;;;;;;;;7.50;71.60;;;;;;4927718;28;19938;-62
2024/02/24 04:14:28;;;;;;;;;;;7.50;71.40;;;;;;4932747;28;19937;-62
2024/02/24 04:16:56;;;;;;;;;;;7.50;71.30;;;;;;4933193;28;19930;-64
2024/02/24 04:19:24;;;;;;;;;;;7.50;71.20;;;;;;4933592;28;20044;-64
2024/02/24 04:21:52;;;;;;;;;;;7.40;71.00;;;;;;4927058;28;20449;-62
2024/02/24 04:24:22;;;;;;;;;;;7.40;70.80;;;;;;4935298;28;20017;-63
2024/02/24 04:26:50;;;;;;;;;;;7.40;70.80;;;;;;4937724;28;19993;-64
2024/02/24 04:29:18;;;;;;;;;;;7.30;70.60;;;;;;4935025;29;20021;-62
2024/02/24 04:31:46;;;;;;;;;;;7.30;70.80;;;;;;4934890;28;20298;-66
2024/02/24 04:34:15;;;;;;;;;;;7.30;70.50;;;;;;4924674;28;20405;-63
2024/02/24 04:36:43;;;;;;;;;;;7.30;70.70;;;;;;4939748;28;19934;-65
2024/02/24 04:39:11;;;;;;;;;;;7.20;70.50;;;;;;4933729;28;20437;-64
2024/02/24 04:41:40;;;;;;;;;;;7.20;70.80;;;;;;4935103;28;20021;-66
2024/02/24 04:44:08;;;;;;;;;;;7.20;71.20;;;;;;4929448;28;19985;-62
2024/02/24 04:46:38;;;;;;;;;;;7.20;71.70;;;;;;4938357;28;19930;-64
2024/02/24 04:49:06;;;;;;;;;;;7.20;71.90;;;;;;4927261;28;19933;-63
2024/02/24 04:51:34;;;;;;;;;;;7.30;72.10;;;;;;4931222;28;19934;-62
2024/02/24 04:54:03;;;;;;;;;;;7.30;72.20;;;;;;4940129;28;20409;-67
2024/02/24 04:56:31;;;;;;;;;;;7.40;72.30;;;;;;4926684;28;19933;-63
2024/02/24 04:59:00;;;;;;;;;;;7.40;72.30;;;;;;4936395;28;19966;-66
2024/02/24 05:01:28;;;;;;;;;;;7.50;71.90;;;;;;4940392;28;19966;-64
2024/02/24 05:03:58;;;;;;;;;;;7.50;71.70;;;;;;4947086;28;19927;-66
2024/02/24 05:06:26;;;;;;;;;;;7.50;71.20;;;;;;4926292;28;20100;-67
2024/02/24 05:08:54;;;;;;;;;;;7.50;71.20;;;;;;4931716;28;19938;-64
2024/02/24 05:11:22;;;;;;;;;;;7.50;70.90;;;;;;4933481;28;19938;-65
2024/02/24 05:13:50;;;;;;;;;;;7.50;70.90;;;;;;4932490;28;19998;-66
2024/02/24 05:16:19;;;;;;;;;;;7.50;71.20;;;;;;4937624;28;19938;-66
2024/02/24 05:18:47;;;;;;;;;;;7.50;71.50;;;;;;4926650;28;21007;-67
2024/02/24 05:21:20;;;;;;;;;;;7.50;71.70;;;;;;4937318;28;19926;-64
2024/02/24 05:23:48;;;;;;;;;;;7.50;71.70;;;;;;4938637;28;19938;-63
2024/02/24 05:26:22;;;;;;;;;;;7.50;71.70;;;;;;4931303;28;20598;-62
2024/02/24 05:28:50;;;;;;;;;;;7.50;71.60;;;;;;4922919;28;19989;-63
2024/02/24 05:31:20;;;;;;;;;;;7.50;71.50;;;;;;4934094;28;19945;-65
2024/02/24 05:33:48;;;;;;;;;;;7.50;71.50;;;;;;4927667;28;19930;-61
2024/02/24 05:36:16;;;;;;;;;;;7.50;71.50;;;;;;4931371;28;19927;-65
2024/02/24 05:38:44;;;;;;;;;;;7.50;71.50;;;;;;4931952;28;20309;-65
2024/02/24 05:41:13;;;;;;;;;;;7.50;71.60;;;;;;4924521;28;20292;-64
2024/02/24 05:43:41;;;;;;;;;;;7.50;71.80;;;;;;4933550;28;20033;-62
2024/02/24 05:46:09;;;;;;;;;;;7.50;71.40;;;;;;4937257;28;19931;-63
2024/02/24 05:48:39;;;;;;;;;;;7.50;71.50;;;;;;4935479;28;19986;-64
2024/02/24 05:51:09;;;;;;;;;;;7.50;71.50;;;;;;4934486;28;19934;-66
2024/02/24 05:53:37;;;;;;;;;;;7.50;71.40;;;;;;4933099;28;20036;-62
2024/02/24 05:56:06;;;;;;;;;;;7.50;71.30;;;;;;4936079;28;19937;-63
2024/02/24 05:58:34;;;;;;;;;;;7.50;71.20;;;;;;4940599;28;20759;-64
2024/02/24 06:01:03;;;;;;;;;;;7.50;71.20;;;;;;4937597;28;20404;-65
2024/02/24 06:03:31;;;;;;;;;;;7.10;71.20;;;;;;4934292;28;20005;-66
2024/02/24 06:06:01;;;;;;;;;;;7.50;71.30;;;;;;4936139;28;19938;-62
2024/02/24 06:08:29;;;;;;;;;;;7.50;71.20;;;;;;4939069;28;19934;-62
2024/02/24 06:10:57;;;;;;;;;;;7.50;71.10;;;;;;4939848;28;19951;-63
2024/02/24 06:13:26;;;;;;;;;;;7.50;71.20;;;;;;4939946;28;20077;-63
2024/02/24 06:15:54;;;;;;;;;;;7.50;71.50;;;;;;4924934;28;19934;-63
2024/02/24 06:18:23;;;;;;;;;;;7.60;71.20;;;;;;4939872;28;20018;-62
2024/02/24 06:20:52;;;;;;;;;;;7.60;71.00;;;;;;4937198;28;19989;-62
2024/02/24 06:23:22;;;;;;;;;;;7.60;70.80;;;;;;4936503;28;19953;-63
2024/02/24 06:25:50;;;;;;;;;;;7.60;70.80;;;;;;4936064;28;20349;-63
2024/02/24 06:28:18;;;;;;;;;;;7.60;70.70;;;;;;4935150;28;19941;-62
2024/02/24 06:30:46;;;;;;;;;;;7.60;70.80;;;;;;4936342;28;19942;-63
2024/02/24 06:33:15;;;;;;;;;;;7.70;70.90;;;;;;4933331;28;20105;-63
2024/02/24 06:35:43;;;;;;;;;;;7.70;70.90;;;;;;4936065;29;19934;-62
2024/02/24 06:38:11;;;;;;;;;;;7.70;70.90;;;;;;4932431;28;19926;-64
2024/02/24 06:40:40;;;;;;;;;;;7.70;70.80;;;;;;4935969;28;20022;-64
2024/02/24 06:43:14;;;;;;;;;;;7.80;70.80;;;;;;4953394;28;20045;-62
2024/02/24 06:45:42;;;;;;;;;;;7.80;70.80;;;;;;4941621;28;19926;-65
2024/02/24 06:48:10;;;;;;;;;;;7.90;70.70;;;;;;4937050;28;20614;-65
2024/02/24 06:50:38;;;;;;;;;;;7.90;70.90;;;;;;4929121;28;19931;-65
2024/02/24 06:53:07;;;;;;;;;;;8.00;70.70;;;;;;4939699;28;19930;-63
2024/02/24 06:55:35;;;;;;;;;;;8.00;70.60;;;;;;4935089;28;20457;-62
2024/02/24 06:58:04;;;;;;;;;;;8.10;70.60;;;;;;4939566;28;19930;-64
2024/02/24 07:00:33;;;;;;;;;;;8.10;70.50;;;;;;4934388;28;19927;-62
2024/02/24 07:03:01;;;;;;;;;;;8.20;70.40;;;;;;4925526;28;20021;-62
2024/02/24 07:05:31;;;;;;;;;;;8.30;70.20;;;;;;4934828;28;20923;-64
2024/02/24 07:08:00;;;;;;;;;;;8.40;70.20;;;;;;4930719;28;20705;-65
2024/02/24 07:10:28;;;;;;;;;;;8.40;70.00;;;;;;4931154;28;20615;-62
2024/02/24 07:12:56;;;;;;;;;;;8.50;70.00;;;;;;4933213;29;20438;-64
2024/02/24 07:15:26;;;;;;;;;;;8.50;69.60;;;;;;4925469;28;20576;-62
2024/02/24 07:17:54;;;;;;;;;;;8.60;69.50;;;;;;4935984;28;19931;-61
2024/02/24 07:20:22;;;;;;;;;;;8.70;69.30;;;;;;4937196;28;20685;-61
2024/02/24 07:22:51;;;;;;;;;;;8.70;69.30;;;;;;4934788;28;19949;-60
2024/02/24 07:25:19;;;;;;;;;;;8.70;69.00;;;;;;4931356;28;19934;-61
2024/02/24 07:27:47;;;;;;;;;;;8.80;69.00;;;;;;4929177;28;19933;-61
2024/02/24 07:30:15;;;;;;;;;;;8.70;69.20;;;;;;4928595;28;21606;-61
2024/02/24 07:32:45;;;;;;;;;;;8.80;69.20;;;;;;4928680;28;19941;-63
2024/02/24 07:35:14;;;;;;;;;;;8.80;69.50;;;;;;4936695;28;20034;-62
2024/02/24 07:37:43;;;;;;;;;;;8.90;69.30;;;;;;4933208;28;20458;-63
2024/02/24 07:40:11;;;;;;;;;;;8.90;69.50;;;;;;4933944;28;20451;-61
2024/02/24 07:42:39;;;;;;;;;;;9.00;69.30;;;;;;4930260;28;20028;-62
2024/02/24 07:45:08;;;;;;;;;;;9.00;69.20;;;;;;4942602;28;19926;-63
2024/02/24 07:47:37;;;;;;;;;;;9.10;69.20;;;;;;4932708;28;20369;-61
2024/02/24 07:50:08;;;;;;;;;;;9.20;69.20;;;;;;4931153;28;19935;-63
2024/02/24 07:52:36;;;;;;;;;;;9.20;69.30;;;;;;4930390;28;21054;-64
2024/02/24 07:55:05;;;;;;;;;;;9.30;69.30;;;;;;4934607;28;20708;-61
2024/02/24 07:57:33;;;;;;;;;;;9.40;69.20;;;;;;4923397;28;19933;-62
2024/02/24 08:00:02;;;;;;;;;;;9.50;69.70;;;;;;4929719;28;20023;-62
2024/02/24 08:02:31;;;;;;;;;;;9.50;69.20;;;;;;4929047;28;19935;-61
2024/02/24 08:04:59;;;;;;;;;;;9.60;69.20;;;;;;4932340;28;19931;-62
2024/02/24 08:07:30;;;;;;;;;;;9.70;69.70;;;;;;4932807;28;20281;-63
2024/02/24 08:09:58;;;;;;;;;;;9.80;69.30;;;;;;4945718;28;19970;-61
2024/02/24 08:12:26;;;;;;;;;;;9.80;69.10;;;;;;4929566;28;19957;-61
2024/02/24 08:14:55;;;;;;;;;;;9.90;69.00;;;;;;4937982;28;19941;-60
2024/02/24 08:17:23;;;;;;;;;;;10.00;69.10;;;;;;4930914;28;20393;-61
2024/02/24 08:19:51;;;;;;;;;;;10.20;69.40;;;;;;4931397;28;19934;-61
2024/02/24 08:22:19;;;;;;;;;;;10.40;70.80;;;;;;4924949;28;19931;-62
2024/02/24 08:24:49;;;;;;;;;;;11.50;73.30;;;;;;4934167;28;20301;-61
2024/02/24 08:27:17;;;;;;;;;;;12.90;72.70;;;;;;4938727;28;19994;-63
2024/02/24 08:29:45;;;;;;;;;;;14.40;71.70;;;;;;4929987;28;19931;-61
2024/02/24 08:32:13;;;;;;;;;;;15.60;70.00;;;;;;4933724;28;20021;-62
2024/02/24 08:34:41;;;;;;;;;;;16.80;69.00;;;;;;4933818;28;19926;-62
2024/02/24 08:37:09;;;;;;;;;;;17.70;68.00;;;;;;4931579;28;19961;-60
2024/02/24 08:39:37;;;;;;;;;;;18.30;67.20;;;;;;4930220;28;19956;-60
2024/02/24 08:42:07;;;;;;;;;;;18.90;66.30;;;;;;4934778;28;20309;-61
2024/02/24 08:44:35;;;;;;;;;;;19.70;65.70;;;;;;4938741;28;19945;-59
2024/02/24 08:47:03;;;;;;;;;;;20.70;66.40;;;;;;4937176;28;20064;-62
2024/02/24 08:49:31;;;;;;;;;;;21.70;64.40;;;;;;4931126;28;19989;-61
2024/02/24 08:51:59;;;;;;;;;;;22.50;62.60;;;;;;4935765;28;20401;-59
2024/02/24 08:54:28;;;;;;;;;;;23.10;60.30;;;;;;4927346;28;20021;-59
2024/02/24 08:56:56;;;;;;;;;;;23.20;57.50;;;;;;4933300;28;19930;-63
2024/02/24 08:59:25;;;;;;;;;;;23.00;56.60;;;;;;4924534;28;19938;-61
2024/02/24 09:01:54;;;;;;;;;;;23.00;56.60;;;;;;4929905;28;19935;-60
2024/02/24 09:04:23;;;;;;;;;;;23.10;56.30;;;;;;4928897;28;19930;-60
2024/02/24 09:06:52;;;;;;;;;;;23.20;57.20;;;;;;4929336;28;20199;-61
2024/02/24 09:09:20;;;;;;;;;;;23.50;56.90;;;;;;4929687;28;20072;-62
2024/02/24 09:11:49;;;;;;;;;;;23.80;56.80;;;;;;4943886;28;20042;-62
2024/02/24 09:14:18;;;;;;;;;;;23.90;55.50;;;;;;4931332;28;20017;-62
2024/02/24 09:16:48;;;;;;;;;;;24.00;55.60;;;;;;4923164;28;19936;-62
2024/02/24 09:19:19;;;;;;;;;;;24.20;55.40;;;;;;4928139;28;20364;-60
2024/02/24 09:21:47;;;;;;;;;;;24.40;55.50;;;;;;4931808;28;20017;-61
2024/02/24 09:24:16;;;;;;;;;;;24.60;55.50;;;;;;4934270;28;19953;-61
2024/02/24 09:26:44;;;;;;;;;;;24.60;54.30;;;;;;4927499;28;20084;-61
2024/02/24 09:29:13;;;;;;;;;;;24.80;54.50;;;;;;4928021;28;20444;-59
2024/02/24 09:31:42;;;;;;;;;;;24.80;53.80;;;;;;4917065;28;20658;-61
2024/02/24 09:34:11;;;;;;;;;;;24.90;54.60;;;;;;4928603;28;19931;-60
2024/02/24 09:36:40;;;;;;;;;;;25.40;55.40;;;;;;4934848;28;19927;-60
2024/02/24 09:39:08;;;;;;;;;;;25.80;55.20;;;;;;4932475;28;19974;-60
2024/02/24 09:41:36;;;;;;;;;;;26.40;55.50;;;;;;4933538;28;19934;-59
2024/02/24 09:44:04;;;;;;;;;;;27.20;55.30;;;;;;4932907;28;21428;-63
2024/02/24 09:46:34;;;;;;;;;;;27.60;54.00;;;;;;4932819;28;19930;-59
2024/02/24 09:49:05;;;;;;;;;;;28.10;54.40;;;;;;4931782;28;19927;-60
2024/02/24 09:51:35;;;;;;;;;;;28.30;52.10;;;;;;4931129;28;19937;-62
2024/02/24 09:54:03;;;;;;;;;;;28.00;52.30;;;;;;4946837;28;19949;-61
2024/02/24 09:56:32;;;;;;;;;;;27.70;52.30;;;;;;4928835;28;19938;-61
2024/02/24 09:59:01;;;;;;;;;;;27.30;52.10;;;;;;4935041;28;20006;-62
2024/02/24 10:01:29;;;;;;;;;;;26.80;50.80;;;;;;4935412;28;19933;-60
2024/02/24 10:03:57;;;;;;;;;;;26.30;51.00;;;;;;4927944;28;19978;-62
2024/02/24 10:06:26;;;;;;;;;;;26.10;52.00;;;;;;4934565;28;19930;-62
2024/02/24 10:08:55;;;;;;;;;;;25.90;51.80;;;;;;4923811;28;19927;-60
2024/02/24 10:11:23;;;;;;;;;;;25.60;51.80;;;;;;4932429;28;21011;-60
2024/02/24 10:13:54;;;;;;;;;;;25.30;51.30;;;;;;4935041;28;20369;-61
2024/02/24 10:16:25;;;;;;;;;;;25.40;52.90;;;;;;4933478;29;19937;-60
2024/02/24 10:19:00;;;;;;;;;;;25.60;52.30;;;;;;4937859;28;19935;-61
2024/02/24 10:21:29;;;;;;;;;;;25.60;52.30;;;;;;4930171;28;19937;-61
2024/02/24 10:23:58;;;;;;;;;;;25.50;52.30;;;;;;4939436;28;20333;-62
2024/02/24 10:26:27;;;;;;;;;;;25.40;52.10;;;;;;4929064;28;19934;-63
2024/02/24 10:28:56;;;;;;;;;;;25.40;52.10;;;;;;4932441;28;19953;-61
2024/02/24 10:31:26;;;;;;;;;;;25.40;52.40;;;;;;4929342;29;21322;-62
2024/02/24 10:33:55;;;;;;;;;;;25.60;52.70;;;;;;4921033;28;19930;-61
2024/02/24 10:36:24;;;;;;;;;;;26.00;52.40;;;;;;4930641;28;19931;-62
2024/02/24 10:38:53;;;;;;;;;;;26.10;51.60;;;;;;4939122;28;20020;-63
2024/02/24 10:41:25;;;;;;;;;;;26.50;51.80;;;;;;4934925;28;19937;-63
2024/02/24 10:44:00;;;;;;;;;;;27.00;51.50;;;;;;4931268;28;19926;-62
2024/02/24 10:46:48;;;;;;;;;;;27.90;51.20;;;;;;4939741;28;19926;-59
2024/02/24 10:49:17;;;;;;;;;;;28.50;49.70;;;;;;4932835;28;19934;-62
2024/02/24 10:51:50;;;;;;;;;;;28.80;49.00;;;;;;4934441;28;20395;-63
2024/02/24 10:54:26;;;;;;;;;;;28.70;48.20;;;;;;4931147;28;19947;-62
2024/02/24 10:56:57;;;;;;;;;;;28.50;48.10;;;;;;4932366;28;19937;-61
2024/02/24 10:59:29;;;;;;;;;;;28.50;48.60;;;;;;4935252;28;19934;-62
2024/02/24 11:02:02;;;;;;;;;;;28.60;48.20;;;;;;4930895;28;19950;-59
2024/02/24 11:04:33;;;;;;;;;;;28.40;48.00;;;;;;4934987;28;19957;-61
2024/02/24 11:07:03;;;;;;;;;;;28.10;48.00;;;;;;4950785;28;19935;-61
2024/02/24 11:09:34;;;;;;;;;;;27.60;48.20;;;;;;4932495;28;19942;-60
2024/02/24 11:12:05;;;;;;;;;;;27.30;48.60;;;;;;4927847;28;20429;-62
2024/02/24 11:14:34;;;;;;;;;;;26.70;48.70;;;;;;4938210;28;20028;-64
2024/02/24 11:17:03;;;;;;;;;;;26.30;49.00;;;;;;4933570;28;19930;-60
2024/02/24 11:19:40;;;;;;;;;;;25.70;49.40;;;;;;4939419;28;19930;-59
2024/02/24 11:22:11;;;;;;;;;;;25.20;49.90;;;;;;4927044;28;20713;-60
2024/02/24 11:24:39;;;;;;;;;;;24.60;50.40;;;;;;4934780;28;19959;-60
2024/02/24 11:27:11;;;;;;;;;;;23.90;50.90;;;;;;4934300;28;19978;-59
2024/02/24 11:29:39;;;;;;;;;;;23.30;51.70;;;;;;4934983;28;19926;-60
2024/02/24 11:32:11;;;;;;;;;;;22.50;52.40;;;;;;4927927;28;20313;-60
2024/02/24 11:34:42;;;;;;;;;;;21.60;53.00;;;;;;4931652;28;19930;-60
2024/02/24 11:37:15;;;;;;;;;;;20.70;54.00;;;;;;4936267;28;19965;-60
2024/02/24 11:39:44;;;;;;;;;;;19.90;55.10;;;;;;4932671;28;19930;-59
2024/02/24 11:42:15;;;;;;;;;;;19.30;56.00;;;;;;4935734;28;19935;-60
2024/02/24 11:44:43;;;;;;;;;;;18.80;56.80;;;;;;4937721;28;20013;-60
2024/02/24 11:47:12;;;;;;;;;;;18.40;57.30;;;;;;4925146;28;20416;-63
2024/02/24 11:49:47;;;;;;;;;;;18.10;57.60;;;;;;4929856;28;19926;-61
2024/02/24 11:52:17;;;;;;;;;;;17.80;57.80;;;;;;4936190;28;19930;-60
2024/02/24 11:54:45;;;;;;;;;;;17.60;58.20;;;;;;4933622;28;19927;-65
2024/02/24 11:57:15;;;;;;;;;;;17.40;58.40;;;;;;4939272;28;19930;-60
2024/02/24 11:59:43;;;;;;;;;;;17.30;58.90;;;;;;4927681;28;19930;-60
2024/02/24 12:02:13;;;;;;;;;;;17.30;59.20;;;;;;4926221;28;19977;-60
2024/02/24 12:04:41;;;;;;;;;;;17.60;59.30;;;;;;4930467;28;19970;-61
2024/02/24 12:07:10;;;;;;;;;;;17.90;59.30;;;;;;4937027;28;19966;-60
2024/02/24 12:09:38;;;;;;;;;;;18.20;59.10;;;;;;4934592;28;19994;-62
2024/02/24 12:12:07;;;;;;;;;;;18.60;58.90;;;;;;4924454;28;20184;-63
2024/02/24 12:14:36;;;;;;;;;;;18.80;58.60;;;;;;4933993;28;20364;-61
2024/02/24 12:17:04;;;;;;;;;;;18.90;58.30;;;;;;4931646;28;19938;-60
2024/02/24 12:19:35;;;;;;;;;;;18.90;58.10;;;;;;4936007;28;19930;-61
2024/02/24 12:22:06;;;;;;;;;;;19.00;58.10;;;;;;4924378;28;19934;-61
2024/02/24 12:24:37;;;;;;;;;;;19.00;58.30;;;;;;4932659;28;19931;-61
2024/02/24 12:27:08;;;;;;;;;;;19.00;57.90;;;;;;4933555;28;19937;-60
2024/02/24 12:29:38;;;;;;;;;;;19.00;58.10;;;;;;4931424;28;19938;-61
2024/02/24 12:32:07;;;;;;;;;;;19.00;57.90;;;;;;4932153;28;19934;-63
2024/02/24 12:34:36;;;;;;;;;;;19.00;57.90;;;;;;4927679;28;19931;-62
2024/02/24 12:37:05;;;;;;;;;;;19.00;58.00;;;;;;4938229;28;20405;-60
2024/02/24 12:39:34;;;;;;;;;;;18.70;57.20;;;;;;4933191;28;20321;-59
2024/02/24 12:42:02;;;;;;;;;;;18.50;57.40;;;;;;4930329;28;20606;-61
2024/02/24 12:44:32;;;;;;;;;;;18.20;57.60;;;;;;4934889;28;21442;-61
2024/02/24 12:47:01;;;;;;;;;;;18.00;57.90;;;;;;4937337;28;19961;-62
2024/02/24 12:49:30;;;;;;;;;;;17.90;57.90;;;;;;4933331;28;19962;-62
2024/02/24 12:51:58;;;;;;;;;;;17.70;57.90;;;;;;4925151;28;20040;-61
2024/02/24 12:54:26;;;;;;;;;;;17.50;58.00;;;;;;4932978;28;19938;-64
2024/02/24 12:56:54;;;;;;;;;;;17.40;58.30;;;;;;4932658;28;20050;-61
2024/02/24 12:59:23;;;;;;;;;;;17.30;58.50;;;;;;4929685;28;20393;-63
2024/02/24 13:01:51;;;;;;;;;;;17.30;58.60;;;;;;4930682;28;19930;-62
2024/02/24 13:04:21;;;;;;;;;;;17.20;58.60;;;;;;4928256;28;20021;-62
2024/02/24 13:06:49;;;;;;;;;;;17.20;58.40;;;;;;4932071;28;19930;-61
2024/02/24 13:09:17;;;;;;;;;;;17.10;58.60;;;;;;4929400;28;19970;-63
2024/02/24 13:11:45;;;;;;;;;;;17.10;58.70;;;;;;4932636;28;20341;-60
2024/02/24 13:14:14;;;;;;;;;;;17.10;58.50;;;;;;4929333;28;19934;-59
2024/02/24 13:16:42;;;;;;;;;;;17.10;58.40;;;;;;4934723;28;20009;-63
2024/02/24 13:19:10;;;;;;;;;;;17.00;57.90;;;;;;4934312;28;19931;-61
2024/02/24 13:21:41;;;;;;;;;;;16.90;58.00;;;;;;4932889;28;20409;-62
2024/02/24 13:24:09;;;;;;;;;;;16.90;58.50;;;;;;4928408;28;20145;-61
2024/02/24 13:26:37;;;;;;;;;;;17.00;58.80;;;;;;4927867;28;19935;-61
2024/02/24 13:29:05;;;;;;;;;;;17.10;58.70;;;;;;4930447;28;19953;-66
2024/02/24 13:31:33;;;;;;;;;;;17.20;58.70;;;;;;4931635;28;19930;-61
2024/02/24 13:34:02;;;;;;;;;;;17.20;58.50;;;;;;4928714;28;20379;-61
2024/02/24 13:36:30;;;;;;;;;;;17.20;58.50;;;;;;4931661;28;19930;-63
2024/02/24 13:39:00;;;;;;;;;;;17.20;58.20;;;;;;4933714;28;20391;-62
2024/02/24 13:41:28;;;;;;;;;;;17.20;58.20;;;;;;4932096;28;20481;-62
2024/02/24 13:43:57;;;;;;;;;;;17.20;58.00;;;;;;4929657;28;20332;-61
2024/02/24 13:46:25;;;;;;;;;;;17.20;58.00;;;;;;4947509;28;19931;-62
2024/02/24 13:49:01;;;;;;;;;;;17.10;58.00;;;;;;4926899;28;19938;-61
2024/02/24 13:51:31;;;;;;;;;;;17.10;58.00;;;;;;4933169;28;19927;-62
2024/02/24 13:54:00;;;;;;;;;;;17.00;58.10;;;;;;4926615;28;19934;-61
2024/02/24 13:56:29;;;;;;;;;;;16.90;58.20;;;;;;4892426;29;20387;-63
2024/02/24 13:59:00;;;;;;;;;;;17.00;58.60;;;;;;4890197;29;20461;-60
2024/02/24 14:01:28;;;;;;;;;;;17.20;58.70;;;;;;4895441;29;19931;-62
2024/02/24 14:03:57;;;;;;;;;;;17.30;58.80;;;;;;4895661;29;20314;-61
2024/02/24 14:06:27;;;;;;;;;;;17.60;58.60;;;;;;4886498;29;19937;-63
2024/02/24 14:08:56;;;;;;;;;;;17.70;58.00;;;;;;4896768;29;20025;-61
2024/02/24 14:11:26;;;;;;;;;;;17.60;57.80;;;;;;4894640;29;19974;-62
2024/02/24 14:13:54;;;;;;;;;;;17.60;57.70;;;;;;4898126;29;20049;-65
2024/02/24 14:16:23;;;;;;;;;;;17.40;57.50;;;;;;4889656;29;20379;-62
2024/02/24 14:18:51;;;;;;;;;;;17.30;57.20;;;;;;4894862;29;19935;-63
2024/02/24 14:21:20;;;;;;;;;;;17.10;56.70;;;;;;4896885;29;19931;-63
2024/02/24 14:23:48;;;;;;;;;;;16.90;57.00;;;;;;4897973;29;20814;-66
2024/02/24 14:26:17;;;;;;;;;;;16.80;57.50;;;;;;4891757;29;19931;-63
2024/02/24 14:28:48;;;;;;;;;;;16.70;57.50;;;;;;4898217;29;20361;-61
2024/02/24 14:31:28;;;;;;;;;;;16.60;57.50;;;;;;4896715;29;19987;-62
2024/02/24 14:33:56;;;;;;;;;;;16.40;57.20;;;;;;4899535;29;20538;-61